Antioch, IL (60002)

6:05 PM CST en Noviembre 21, 2014 (GMT -0600)
NeuHaven | Change Station
CLOSE
Current Station
Estación meteorológica personal
Location: Antioch, IL
Altura: 791 ft
Estaciones meteorológicas cercanas

Alt 791 ft 42.47 °N, 88.04 °W | Updated 7 seconds ago

Despejado
Despejado
28.0 ° F
Sensación térmica 28 ° F
N
2.5
Viento Variable Viento desde SSE
Gusts 2.5 mph

Hoy
Alta -- | Baja -- ° F
--% Posibilidad de precipitaciones
Ayer
Alta -- | Baja -- ° F
Precip. -- pul
6:50 AM 4:25 PM
Creciente menguante, 0% visible
Presión 30.35 pul
Visibilidad 10.0 Millas
Nubes Despejado
Vientos helados 28 ° F
Punto de rocío -7 ° F
Humedad 21%
Precipitaciones 0.00 pul
Espesor de la nieve No disponible.
UV 0 de una escala de 12
Polen .10 de una escala de 12
Calidad del aire No disponible.
Flu Activity No disponible.
METAR KUGN 212355Z 17008KT 10SM CLR M02/M17 A3028 RMK AO2 SLP275 T10221167 10000 21022 58010

More Conditions Fewer Conditions

Presión 30.35 pul
Visibilidad 10.0 Millas
Nubes Despejado
Vientos helados 28 ° F
Punto de rocío -7 ° F
Humedad 21%
Precipitaciones 0.00 pul
Espesor de la nieve No disponible.
UV 0 de una escala de 12
Polen .10 de una escala de 12
Calidad del aire No disponible.
Flu Activity No disponible.
METAR KUGN 212355Z 17008KT 10SM CLR M02/M17 A3028 RMK AO2 SLP275 T10221167 10000 21022 58010

More Conditions Fewer Conditions

10-Day Weather Forecast

Almanac

Astronomía

Nov. 21, 2014 Salida Puesta
Hora real
Crepúsculo civil
Crepúsculo náutico
Crepúsculo astronómico
Luna
Horas de luz
Horas de luz
Tomorrow will be .
, % of the Moon is Illuminated

Extremos de hoy

Máximos del estado Bajos del estado

Community

WunderPhotos

Upload Photos

1,772,741 ¡fotos cargadas!

WunderBlogs® & News

Nearby

Calidad del aire

  Calidad del aire Índice AQ Contaminante
Not available.

Grosos de nieve

Estación Profundido Altura

Actividad de terremotos

Ciudad Distance Mag. Tiempo y dato
Magnitud mínima muestra es 2,5.

Temperaturas de aguas costeras

Lugar Temperatura

Estaciones meteorológicas cercanas